HomeShort term forecast

Short term forecast

Graphical weather forecast for the next 48 hours for Montreal:

Short term forecast

This weather forecast is automatically refreshed every 3 hours.

Hourly Experimental Forecast for the next 48 hours ®

Overall summary: Clear throughout the day.

 Date & Hour   Temp   Feel   Baro   Hum   Speed & Bearing   Wind Gust   Precip.%   Precip.   Visibility   Cloud cover   Conditions 
 02/08/2021 - 18:00  23.7°C  23.7°C  1013.8 hPa  47%  15.7 km/h   22.4 km/h  0%  --  16.1km  34%  Partly Cloudy 
 02/08/2021 - 19:00  22.5°C  22.5°C  1014.0 hPa  53%  14.0 km/h   22.8 km/h  0%  --  16.1km  19%  Clear 
 02/08/2021 - 20:00  21.3°C  21.3°C  1014.4 hPa  59%  11.0 km/h   22.3 km/h  0%  --  16.1km  14%  Clear 
 02/08/2021 - 21:00  20.0°C  20.0°C  1014.9 hPa  63%  10.4 km/h   18.6 km/h  0%  --  16.1km  18%  Clear 
 02/08/2021 - 22:00  19.0°C  19.0°C  1015.3 hPa  65%  9.7 km/h   16.9 km/h  0%  --  16.1km  13%  Clear 
 02/08/2021 - 23:00  18.1°C  18.1°C  1015.6 hPa  67%  9.3 km/h   17.0 km/h  0%  --  16.1km  12%  Clear 
 03/08/2021 - 00:00  17.5°C  17.5°C  1015.8 hPa  70%  9.9 km/h   18.1 km/h  0%  --  16.1km  13%  Clear 
 03/08/2021 - 01:00  17.1°C  17.1°C  1015.8 hPa  71%  10.9 km/h   23.1 km/h  0%  --  16.1km  12%  Clear 
 03/08/2021 - 02:00  16.3°C  16.3°C  1015.8 hPa  74%  11.5 km/h   24.3 km/h  0%  --  16.1km  11%  Clear 
 03/08/2021 - 03:00  15.9°C  15.9°C  1015.8 hPa  77%  11.4 km/h   24.1 km/h  0%  --  16.1km  4%  Clear 
 03/08/2021 - 04:00  15.6°C  15.6°C  1015.7 hPa  80%  11.5 km/h   27.8 km/h  0%  --  16.1km  2%  Clear 
 03/08/2021 - 05:00  15.4°C  15.4°C  1015.9 hPa  82%  12.9 km/h   30.5 km/h  0%  --  16.1km  2%  Clear 
 03/08/2021 - 06:00  15.2°C  15.2°C  1016.2 hPa  85%  13.4 km/h   31.1 km/h  0%  --  16.1km  1%  Clear 
 03/08/2021 - 07:00  15.3°C  15.3°C  1016.3 hPa  87%  15.6 km/h   34.4 km/h  0%  --  16.1km  2%  Clear 
 03/08/2021 - 08:00  17.0°C  17.0°C  1016.7 hPa  88%  16.8 km/h   36.2 km/h  0%  --  16.1km  10%  Clear 
 03/08/2021 - 09:00  18.7°C  18.8°C  1016.8 hPa  85%  18.1 km/h   35.3 km/h  0%  --  16.1km  11%  Clear 
 03/08/2021 - 10:00  20.5°C  20.7°C  1016.2 hPa  79%  19.6 km/h   33.1 km/h  0%  --  16.1km  15%  Clear 
 03/08/2021 - 11:00  22.0°C  22.2°C  1016.2 hPa  74%  20.8 km/h   30.9 km/h  0%  --  16.1km  13%  Clear 
 03/08/2021 - 12:00  23.3°C  23.5°C  1016.1 hPa  70%  21.7 km/h   29.8 km/h  0%  --  16.1km  14%  Clear 
 03/08/2021 - 13:00  24.2°C  24.4°C  1015.7 hPa  67%  22.2 km/h   30.3 km/h  0%  --  16.1km  21%  Clear 
 03/08/2021 - 14:00  25.3°C  25.5°C  1015.6 hPa  63%  22.3 km/h   29.7 km/h  0%  --  16.1km  33%  Partly Cloudy 
 03/08/2021 - 15:00  26.1°C  26.3°C  1015.5 hPa  60%  22.5 km/h   29.0 km/h  0%  --  16.1km  28%  Clear 
 03/08/2021 - 16:00  26.6°C  27.4°C  1015.2 hPa  56%  22.2 km/h   27.9 km/h  0%  --  16.1km  29%  Clear 
 03/08/2021 - 17:00  26.7°C  27.4°C  1015.0 hPa  56%  21.0 km/h   26.8 km/h  1%  0.01 mm/h  16.1km  33%  Partly Cloudy 
 03/08/2021 - 18:00  25.9°C  26.1°C  1014.9 hPa  59%  19.4 km/h   26.3 km/h  1%  0.02 mm/h  16.1km  28%  Clear 
 03/08/2021 - 19:00  24.6°C  24.8°C  1015.2 hPa  62%  16.8 km/h   29.0 km/h  1%  0.04 mm/h  16.1km  30%  Clear 
 03/08/2021 - 20:00  23.3°C  23.4°C  1015.5 hPa  66%  14.8 km/h   35.7 km/h  2%  0.05 mm/h  16.1km  28%  Clear 
 03/08/2021 - 21:00  22.0°C  22.1°C  1016.1 hPa  70%  13.7 km/h   36.5 km/h  2%  0.03 mm/h  16.1km  26%  Clear 
 03/08/2021 - 22:00  21.2°C  21.2°C  1016.7 hPa  72%  13.5 km/h   36.5 km/h  1%  0.01 mm/h  16.1km  34%  Partly Cloudy 
 03/08/2021 - 23:00  20.5°C  20.5°C  1017.2 hPa  73%  13.1 km/h   35.3 km/h  0%  --  16.1km  39%  Partly Cloudy 
 04/08/2021 - 00:00  19.8°C  19.8°C  1017.4 hPa  75%  12.4 km/h   34.8 km/h  0%  --  16.1km  46%  Partly Cloudy 
 04/08/2021 - 01:00  19.1°C  19.1°C  1017.8 hPa  77%  11.3 km/h   33.2 km/h  0%  --  16.1km  43%  Partly Cloudy 
 04/08/2021 - 02:00  18.6°C  18.6°C  1018.0 hPa  79%  10.5 km/h   30.9 km/h  0%  --  16.1km  41%  Partly Cloudy 
 04/08/2021 - 03:00  17.8°C  17.8°C  1018.1 hPa  82%  9.6 km/h   29.6 km/h  0%  --  16.1km  37%  Partly Cloudy 
 04/08/2021 - 04:00  17.0°C  17.0°C  1018.2 hPa  85%  8.4 km/h   26.7 km/h  0%  --  16.1km  26%  Clear 
 04/08/2021 - 05:00  16.4°C  16.4°C  1018.4 hPa  89%  7.3 km/h   22.8 km/h  0%  --  16.1km  23%  Clear 
 04/08/2021 - 06:00  16.2°C  16.3°C  1018.9 hPa  90%  7.0 km/h   21.2 km/h  0%  --  16.1km  25%  Clear 
 04/08/2021 - 07:00  16.9°C  17.0°C  1019.4 hPa  91%  6.7 km/h   19.0 km/h  0%  --  16.1km  43%  Partly Cloudy 
 04/08/2021 - 08:00  18.2°C  18.4°C  1020.0 hPa  90%  6.8 km/h   17.0 km/h  0%  --  16.1km  55%  Partly Cloudy 
 04/08/2021 - 09:00  19.6°C  20.0°C  1020.4 hPa  89%  6.3 km/h   15.5 km/h  0%  --  16.1km  68%  Mostly Cloudy 
 04/08/2021 - 10:00  21.3°C  21.8°C  1020.6 hPa  86%  5.6 km/h   13.6 km/h  0%  --  16.1km  65%  Mostly Cloudy 
 04/08/2021 - 11:00  22.6°C  23.1°C  1020.8 hPa  83%  5.5 km/h   13.3 km/h  0%  --  16.1km  61%  Mostly Cloudy 
 04/08/2021 - 12:00  23.8°C  24.3°C  1020.7 hPa  79%  5.8 km/h   13.4 km/h  0%  --  16.1km  63%  Mostly Cloudy 
 04/08/2021 - 13:00  24.7°C  25.2°C  1020.4 hPa  74%  6.3 km/h   13.5 km/h  0%  --  16.1km  67%  Mostly Cloudy 
 04/08/2021 - 14:00  25.9°C  26.4°C  1020.2 hPa  70%  5.6 km/h   11.9 km/h  0%  --  16.1km  61%  Mostly Cloudy 
 04/08/2021 - 15:00  26.8°C  28.2°C  1020.0 hPa  65%  5.7 km/h   10.8 km/h  0%  --  16.1km  42%  Partly Cloudy 
 04/08/2021 - 16:00  27.4°C  28.7°C  1019.7 hPa  62%  5.9 km/h   9.7 km/h  1%  0.01 mm/h  16.1km  49%  Partly Cloudy 
 04/08/2021 - 17:00  27.4°C  28.7°C  1019.3 hPa  61%  5.9 km/h   8.8 km/h  1%  0.01 mm/h  16.1km  54%  Partly Cloudy 

 

Past weather and reports

Past weatherFind in this section the past weather conditions, weather archive, graphics, reports and statistics.

Current conditions

Current weather condition for MontrealAll you need to know about the current weather conditions for Montreal. Weather data is updated every 10 minutes.

Weather forecast

Current Montreal weatherSince 2004, celinium.com website has provided accurate weather forecast for Montreal's island.